Flight Track Log - Related Links

Times and Time Zones

All times are in EDT time to prevent confusion due to time zone crossing. See the N560HM flight status page for this flight to view local times or setup timezone preferences in your user account.

Time Position Orientation Groundspeed Altitude Reporting Facility
EDT Latitude Longitude Course Direction KTS MPH feet Rate Location/Type
Mon 10:10:05 AM 40.4211 -79.9528 31° Northeast 207 238 3,000  Level Cleveland Center
Mon 10:11:07 AM 40.4733 -79.9083 33° Northeast 219 252 3,600 1,839 Climbing Cleveland Center
Mon 10:12:09 AM 40.5272 -79.8611 34° Northeast 228 262 6,800 2,516 Climbing Cleveland Center
Mon 10:13:11 AM 40.5861 -79.8031 37° Northeast 257 296 8,800 1,935 Climbing Cleveland Center
Mon 10:14:00 AM 40.7960 -80.1870 335° Northwest  Level FlightAware Approximate
Mon 10:14:13 AM 40.6592 -79.7842 11° North 266 306 10,800  Level Cleveland Center
Mon 10:15:00 AM 40.8660 -80.1572 31° Northeast  Level FlightAware Approximate
Mon 10:15:15 AM 40.7553 -79.7603 11° North 287 330 13,100  Level Cleveland Center
Mon 10:16:17 AM 40.8381 -79.7378 12° North 301 346 14,400 1,500 Climbing Cleveland Center
Mon 10:17:19 AM 40.9225 -79.7161 11° North 304 350 16,200 1,258 Climbing Cleveland Center
Mon 10:18:21 AM 41.0111 -79.6900 13° North 323 372 17,000 387 Climbing Cleveland Center
Mon 10:19:23 AM 41.1025 -79.6658 11° North 330 380 17,000  Level Cleveland Center
Mon 10:20:25 AM 41.1931 -79.6406 12° North 332 382 17,000  Level Cleveland Center
Mon 10:21:27 AM 41.3058 -79.6106 11° North 341 392 17,000  Level Cleveland Center
Mon 10:22:29 AM 41.3958 -79.5850 12° North 337 388 17,000  Level Cleveland Center
Mon 10:23:31 AM 41.4856 -79.5586 12° North 333 383 17,000  Level Cleveland Center
Mon 10:24:33 AM 41.5797 -79.5325 12° North 337 388 17,000 48 Level Cleveland Center
Mon 10:25:35 AM 41.6706 -79.5075 12° North 337 388 17,100 48 Climbing Cleveland Center
Mon 10:26:37 AM 41.7617 -79.4825 12° North 333 383 17,100  Level Cleveland Center
Mon 10:27:39 AM 41.8711 -79.4508 12° North 336 387 17,100 -194 Level Cleveland Center
Mon 10:28:41 AM 41.9628 -79.4242 12° North 335 386 16,700 -677 Descending Cleveland Center
Mon 10:29:43 AM 42.0475 -79.4008 12° North 313 360 15,700 -919 Descending Cleveland Center
Mon 10:30:45 AM 42.1367 -79.3772 11° North 323 372 14,800 -919 Descending Cleveland Center
Mon 10:31:47 AM 42.2236 -79.3500 13° North 324 373 13,800 -919 Descending Cleveland Center
Mon 10:32:49 AM 42.3094 -79.3275 11° North 319 367 12,900 -1,016 Descending Cleveland Center
Mon 10:33:51 AM 42.4092 -79.2972 13° North 304 350 11,700 -1,258 Descending Cleveland Center
Mon 10:34:53 AM 42.4847 -79.2756 12° North 297 342 10,300 -1,548 Descending Cleveland Center
Mon 10:35:55 AM 42.5644 -79.2531 12° North 265 305 8,500 -1,500 Descending Cleveland Center
Mon 10:36:57 AM 42.6372 -79.2314 12° North 259 298 7,200 -726 Descending Cleveland Center
Mon 10:37:59 AM 42.7106 -79.2086 13° North 259 298 7,000 -97 Descending Cleveland Center
Mon 10:39:01 AM 42.7625 -79.1458 42° Northeast 259 298 7,000  Level Cleveland Center
Mon 10:40:03 AM 42.8200 -79.0781 41° Northeast 259 298 7,000  Level Cleveland Center
Mon 10:41:05 AM 42.8761 -79.0097 42° Northeast 260 299 7,000 -387 Level Cleveland Center
Mon 10:42:07 AM 42.9333 -78.9419 41° Northeast 260 299 6,200 -1,161 Descending Cleveland Center
Mon 10:43:09 AM 42.9833 -78.8728 45° Northeast 250 288 4,600 -1,565 Descending Cleveland Center
Mon 10:44:02 AM 43.0167 -78.8167 51° Northeast 232 267 3,200 -1,115 Descending Buffalo TRACON
Mon 10:45:02 AM 43.0500 -78.7333 61° Northeast 213 245 2,500 -550 Descending Buffalo TRACON
Mon 10:46:02 AM 43.0167 -78.6833 132° Southeast 162 186 2,100 -550 Descending Buffalo TRACON
Mon 10:47:02 AM 42.9833 -78.6833 180° South 128 147 1,400 -650 Descending Buffalo TRACON
Mon 10:48:02 AM 42.9500 -78.7167 216° Southwest 106 122 800 -600 Descending Buffalo TRACON

Login

Don't have an account? Register now (free) for customized features, flight alerts, and more!